sensor_id;sensor_type;location;lat;lon;timestamp;pressure;altitude;pressure_sealevel;temperature;humidity
47240;BME280;32978;53.586;10.052;2023-04-07T00:03:58;101710.31;;;4.79;100.00
47240;BME280;32978;53.586;10.052;2023-04-07T00:08:55;101717.38;;;4.80;100.00
47240;BME280;32978;53.586;10.052;2023-04-07T00:13:52;101710.84;;;4.76;100.00
47240;BME280;32978;53.586;10.052;2023-04-07T00:18:49;101702.09;;;4.69;100.00
47240;BME280;32978;53.586;10.052;2023-04-07T00:23:45;101712.09;;;4.69;100.00
47240;BME280;32978;53.586;10.052;2023-04-07T00:28:42;101702.84;;;4.64;100.00
47240;BME280;32978;53.586;10.052;2023-04-07T00:33:39;101709.03;;;4.60;100.00
47240;BME280;32978;53.586;10.052;2023-04-07T00:38:35;101712.78;;;4.59;100.00
47240;BME280;32978;53.586;10.052;2023-04-07T00:43:32;101706.75;;;4.52;100.00
47240;BME280;32978;53.586;10.052;2023-04-07T00:48:28;101712.06;;;4.41;100.00
47240;BME280;32978;53.586;10.052;2023-04-07T00:53:26;101710.41;;;4.40;100.00
47240;BME280;32978;53.586;10.052;2023-04-07T00:58:22;101699.47;;;4.30;100.00
47240;BME280;32978;53.586;10.052;2023-04-07T01:03:30;101710.28;;;4.30;100.00
47240;BME280;32978;53.586;10.052;2023-04-07T01:08:32;101704.25;;;4.23;100.00
47240;BME280;32978;53.586;10.052;2023-04-07T01:13:37;101706.03;;;4.17;100.00
47240;BME280;32978;53.586;10.052;2023-04-07T01:18:37;101701.03;;;4.04;100.00
47240;BME280;32978;53.586;10.052;2023-04-07T01:34:24;101702.53;;;3.78;100.00
47240;BME280;32978;53.586;10.052;2023-04-07T01:39:22;101701.88;;;3.71;100.00
47240;BME280;32978;53.586;10.052;2023-04-07T01:44:19;101700.38;;;3.80;100.00
47240;BME280;32978;53.586;10.052;2023-04-07T01:49:16;101705.97;;;3.73;100.00
47240;BME280;32978;53.586;10.052;2023-04-07T01:54:13;101706.81;;;3.74;100.00
47240;BME280;32978;53.586;10.052;2023-04-07T01:59:10;101704.50;;;3.66;100.00
47240;BME280;32978;53.586;10.052;2023-04-07T02:04:11;101703.59;;;3.77;100.00
47240;BME280;32978;53.586;10.052;2023-04-07T02:09:10;101707.44;;;3.64;100.00
47240;BME280;32978;53.586;10.052;2023-04-07T02:14:08;101706.31;;;3.77;100.00
47240;BME280;32978;53.586;10.052;2023-04-07T02:19:05;101701.81;;;3.66;100.00
47240;BME280;32978;53.586;10.052;2023-04-07T02:24:05;101710.09;;;3.42;100.00
47240;BME280;32978;53.586;10.052;2023-04-07T02:29:02;101710.66;;;3.44;100.00
47240;BME280;32978;53.586;10.052;2023-04-07T02:33:59;101719.25;;;3.41;100.00
47240;BME280;32978;53.586;10.052;2023-04-07T02:38:56;101715.50;;;3.42;100.00
47240;BME280;32978;53.586;10.052;2023-04-07T02:43:52;101723.53;;;3.37;100.00
47240;BME280;32978;53.586;10.052;2023-04-07T02:48:49;101724.00;;;3.34;100.00
47240;BME280;32978;53.586;10.052;2023-04-07T02:53:46;101721.41;;;3.39;100.00
47240;BME280;32978;53.586;10.052;2023-04-07T02:58:43;101727.44;;;3.29;100.00
47240;BME280;32978;53.586;10.052;2023-04-07T03:03:39;101724.50;;;3.31;100.00
47240;BME280;32978;53.586;10.052;2023-04-07T03:08:37;101727.50;;;3.17;100.00
47240;BME280;32978;53.586;10.052;2023-04-07T03:13:34;101722.84;;;3.13;100.00
47240;BME280;32978;53.586;10.052;2023-04-07T03:18:30;101719.72;;;3.04;100.00
47240;BME280;32978;53.586;10.052;2023-04-07T03:23:27;101728.88;;;3.03;100.00
47240;BME280;32978;53.586;10.052;2023-04-07T03:28:24;101729.47;;;3.05;100.00
47240;BME280;32978;53.586;10.052;2023-04-07T03:33:21;101734.09;;;2.93;100.00
47240;BME280;32978;53.586;10.052;2023-04-07T03:38:17;101729.75;;;2.92;100.00
47240;BME280;32978;53.586;10.052;2023-04-07T03:43:13;101736.50;;;2.78;100.00
47240;BME280;32978;53.586;10.052;2023-04-07T03:48:11;101748.47;;;2.82;100.00
47240;BME280;32978;53.586;10.052;2023-04-07T03:53:08;101755.63;;;2.88;100.00
47240;BME280;32978;53.586;10.052;2023-04-07T03:58:04;101759.28;;;2.82;100.00
47240;BME280;32978;53.586;10.052;2023-04-07T04:03:01;101752.47;;;2.79;100.00
47240;BME280;32978;53.586;10.052;2023-04-07T04:07:58;101758.59;;;2.74;100.00
47240;BME280;32978;53.586;10.052;2023-04-07T04:12:54;101768.44;;;2.81;100.00
47240;BME280;32978;53.586;10.052;2023-04-07T04:17:51;101759.28;;;2.82;100.00
47240;BME280;32978;53.586;10.052;2023-04-07T04:22:47;101755.13;;;2.62;100.00
47240;BME280;32978;53.586;10.052;2023-04-07T04:27:43;101765.19;;;2.67;100.00
47240;BME280;32978;53.586;10.052;2023-04-07T04:32:40;101778.59;;;2.62;100.00
47240;BME280;32978;53.586;10.052;2023-04-07T04:37:37;101770.59;;;2.55;100.00
47240;BME280;32978;53.586;10.052;2023-04-07T04:42:34;101770.59;;;2.55;100.00
47240;BME280;32978;53.586;10.052;2023-04-07T04:47:30;101786.59;;;2.45;100.00
47240;BME280;32978;53.586;10.052;2023-04-07T04:52:27;101792.94;;;2.39;100.00
47240;BME280;32978;53.586;10.052;2023-04-07T04:57:24;101797.88;;;2.42;100.00
47240;BME280;32978;53.586;10.052;2023-04-07T05:02:20;101800.00;;;2.40;100.00
47240;BME280;32978;53.586;10.052;2023-04-07T05:07:17;101799.63;;;2.48;100.00
47240;BME280;32978;53.586;10.052;2023-04-07T05:12:14;101806.09;;;2.47;100.00
47240;BME280;32978;53.586;10.052;2023-04-07T05:17:11;101805.59;;;2.50;100.00
47240;BME280;32978;53.586;10.052;2023-04-07T05:22:07;101815.47;;;2.56;100.00
47240;BME280;32978;53.586;10.052;2023-04-07T05:27:03;101827.91;;;2.57;100.00
47240;BME280;32978;53.586;10.052;2023-04-07T05:32:00;101837.56;;;2.53;100.00
47240;BME280;32978;53.586;10.052;2023-04-07T05:36:57;101835.53;;;2.60;100.00
47240;BME280;32978;53.586;10.052;2023-04-07T05:41:53;101835.66;;;2.65;100.00
47240;BME280;32978;53.586;10.052;2023-04-07T05:46:49;101838.34;;;2.65;100.00
47240;BME280;32978;53.586;10.052;2023-04-07T05:51:46;101859.84;;;2.60;100.00
47240;BME280;32978;53.586;10.052;2023-04-07T05:56:44;101862.75;;;2.70;100.00
47240;BME280;32978;53.586;10.052;2023-04-07T06:01:41;101864.97;;;2.73;100.00
47240;BME280;32978;53.586;10.052;2023-04-07T06:06:38;101870.16;;;2.75;100.00
47240;BME280;32978;53.586;10.052;2023-04-07T06:11:34;101863.91;;;2.86;100.00
47240;BME280;32978;53.586;10.052;2023-04-07T06:16:31;101872.47;;;2.95;100.00
47240;BME280;32978;53.586;10.052;2023-04-07T06:21:27;101877.63;;;2.97;100.00
47240;BME280;32978;53.586;10.052;2023-04-07T06:26:24;101885.81;;;3.13;100.00
47240;BME280;32978;53.586;10.052;2023-04-07T06:31:20;101893.06;;;3.25;100.00
47240;BME280;32978;53.586;10.052;2023-04-07T06:36:17;101891.38;;;3.35;100.00
47240;BME280;32978;53.586;10.052;2023-04-07T06:41:13;101904.28;;;3.45;100.00
47240;BME280;32978;53.586;10.052;2023-04-07T06:46:12;101901.19;;;3.53;100.00
47240;BME280;32978;53.586;10.052;2023-04-07T06:51:08;101900.91;;;3.67;100.00
47240;BME280;32978;53.586;10.052;2023-04-07T06:56:09;101899.78;;;3.79;100.00
47240;BME280;32978;53.586;10.052;2023-04-07T07:01:06;101906.03;;;3.97;100.00
47240;BME280;32978;53.586;10.052;2023-04-07T07:06:03;101910.97;;;4.17;100.00
47240;BME280;32978;53.586;10.052;2023-04-07T07:10:59;101912.28;;;4.31;100.00
47240;BME280;32978;53.586;10.052;2023-04-07T07:15:56;101909.81;;;4.47;100.00
47240;BME280;32978;53.586;10.052;2023-04-07T07:20:52;101910.59;;;4.64;100.00
47240;BME280;32978;53.586;10.052;2023-04-07T07:25:49;101913.03;;;4.82;100.00
47240;BME280;32978;53.586;10.052;2023-04-07T07:30:45;101912.88;;;5.11;100.00
47240;BME280;32978;53.586;10.052;2023-04-07T07:35:42;101918.47;;;5.26;100.00
47240;BME280;32978;53.586;10.052;2023-04-07T07:40:38;101921.38;;;5.42;100.00
47240;BME280;32978;53.586;10.052;2023-04-07T07:45:35;101930.31;;;5.64;100.00
47240;BME280;32978;53.586;10.052;2023-04-07T07:50:31;101926.53;;;5.93;100.00
47240;BME280;32978;53.586;10.052;2023-04-07T07:55:28;101930.75;;;6.05;100.00
47240;BME280;32978;53.586;10.052;2023-04-07T08:00:24;101939.03;;;6.21;100.00
47240;BME280;32978;53.586;10.052;2023-04-07T08:05:22;101943.00;;;6.40;100.00
47240;BME280;32978;53.586;10.052;2023-04-07T08:10:18;101936.31;;;6.53;100.00
47240;BME280;32978;53.586;10.052;2023-04-07T08:15:15;101946.47;;;6.68;100.00
47240;BME280;32978;53.586;10.052;2023-04-07T08:20:12;101947.63;;;6.82;100.00
47240;BME280;32978;53.586;10.052;2023-04-07T08:25:08;101957.56;;;7.04;100.00
47240;BME280;32978;53.586;10.052;2023-04-07T08:30:06;101952.72;;;7.16;100.00
47240;BME280;32978;53.586;10.052;2023-04-07T08:35:02;101956.13;;;7.44;100.00
47240;BME280;32978;53.586;10.052;2023-04-07T08:40:00;101959.44;;;7.56;100.00
47240;BME280;32978;53.586;10.052;2023-04-07T08:45:01;101956.72;;;7.61;100.00
47240;BME280;32978;53.586;10.052;2023-04-07T08:50:04;101960.31;;;7.77;100.00
47240;BME280;32978;53.586;10.052;2023-04-07T08:55:00;101956.25;;;8.05;100.00
47240;BME280;32978;53.586;10.052;2023-04-07T09:00:00;101966.97;;;8.42;100.00
47240;BME280;32978;53.586;10.052;2023-04-07T09:05:05;101959.06;;;8.61;100.00
47240;BME280;32978;53.586;10.052;2023-04-07T09:10:03;101954.63;;;8.96;100.00
47240;BME280;32978;53.586;10.052;2023-04-07T09:14:59;101951.84;;;9.12;100.00
47240;BME280;32978;53.586;10.052;2023-04-07T09:19:57;101956.78;;;9.04;100.00
47240;BME280;32978;53.586;10.052;2023-04-07T09:25:14;101959.19;;;9.16;100.00
47240;BME280;32978;53.586;10.052;2023-04-07T09:30:13;101953.44;;;9.33;100.00
47240;BME280;32978;53.586;10.052;2023-04-07T09:35:10;101954.19;;;9.44;100.00
47240;BME280;32978;53.586;10.052;2023-04-07T09:40:07;101949.53;;;9.44;100.00
47240;BME280;32978;53.586;10.052;2023-04-07T09:45:04;101956.25;;;9.67;99.89
47240;BME280;32978;53.586;10.052;2023-04-07T09:50:01;101946.63;;;9.80;94.42
47240;BME280;32978;53.586;10.052;2023-04-07T09:55:04;101951.47;;;9.94;92.87
47240;BME280;32978;53.586;10.052;2023-04-07T10:00:01;101946.88;;;10.23;83.79
47240;BME280;32978;53.586;10.052;2023-04-07T10:04:58;101945.53;;;10.55;85.62
47240;BME280;32978;53.586;10.052;2023-04-07T10:09:56;101945.16;;;10.96;81.15
47240;BME280;32978;53.586;10.052;2023-04-07T10:14:53;101951.19;;;10.93;80.02
47240;BME280;32978;53.586;10.052;2023-04-07T10:19:51;101955.75;;;11.70;69.12
47240;BME280;32978;53.586;10.052;2023-04-07T10:25:05;101954.31;;;12.29;68.91
47240;BME280;32978;53.586;10.052;2023-04-07T10:30:04;101945.38;;;13.31;66.38
47240;BME280;32978;53.586;10.052;2023-04-07T10:35:02;101943.25;;;14.68;53.91
47240;BME280;32978;53.586;10.052;2023-04-07T10:45:14;101948.53;;;14.33;55.75
47240;BME280;32978;53.586;10.052;2023-04-07T10:50:21;101947.16;;;14.22;60.84
47240;BME280;32978;53.586;10.052;2023-04-07T10:55:32;101940.47;;;15.39;56.41
47240;BME280;32978;53.586;10.052;2023-04-07T11:00:29;101946.88;;;15.92;46.40
47240;BME280;32978;53.586;10.052;2023-04-07T11:05:25;101945.56;;;15.98;46.50
47240;BME280;32978;53.586;10.052;2023-04-07T11:10:22;101954.69;;;15.24;50.36
47240;BME280;32978;53.586;10.052;2023-04-07T11:15:19;101946.22;;;16.12;51.56
47240;BME280;32978;53.586;10.052;2023-04-07T11:20:17;101944.06;;;16.44;50.28
47240;BME280;32978;53.586;10.052;2023-04-07T11:25:20;101949.09;;;16.59;45.89
47240;BME280;32978;53.586;10.052;2023-04-07T11:30:17;101944.41;;;17.58;45.73
47240;BME280;32978;53.586;10.052;2023-04-07T11:35:13;101938.63;;;18.14;46.59
47240;BME280;32978;53.586;10.052;2023-04-07T11:40:11;101950.19;;;17.44;45.07
47240;BME280;32978;53.586;10.052;2023-04-07T11:45:16;101957.69;;;17.14;47.99
47240;BME280;32978;53.586;10.052;2023-04-07T11:50:13;101948.47;;;17.31;39.79
47240;BME280;32978;53.586;10.052;2023-04-07T11:55:20;101947.63;;;17.90;40.49
47240;BME280;32978;53.586;10.052;2023-04-07T12:00:19;101953.88;;;18.20;40.76
47240;BME280;32978;53.586;10.052;2023-04-07T12:05:15;101950.97;;;18.95;40.85
47240;BME280;32978;53.586;10.052;2023-04-07T12:10:20;101955.03;;;18.52;35.90
47240;BME280;32978;53.586;10.052;2023-04-07T12:15:16;101948.69;;;19.22;34.51
47240;BME280;32978;53.586;10.052;2023-04-07T12:20:13;101948.38;;;20.45;31.01
47240;BME280;32978;53.586;10.052;2023-04-07T12:25:10;101967.97;;;20.96;31.14
47240;BME280;32978;53.586;10.052;2023-04-07T12:30:07;101966.00;;;21.12;27.79
47240;BME280;32978;53.586;10.052;2023-04-07T12:35:04;101968.69;;;20.93;28.72
47240;BME280;32978;53.586;10.052;2023-04-07T12:40:01;101961.13;;;21.76;28.92
47240;BME280;32978;53.586;10.052;2023-04-07T12:44:58;101960.88;;;22.63;28.37
47240;BME280;32978;53.586;10.052;2023-04-07T12:49:54;101956.13;;;22.44;26.80
47240;BME280;32978;53.586;10.052;2023-04-07T12:54:51;101956.28;;;22.97;26.24
47240;BME280;32978;53.586;10.052;2023-04-07T12:59:48;101965.31;;;23.10;27.74
47240;BME280;32978;53.586;10.052;2023-04-07T13:04:45;101964.72;;;22.55;28.36
47240;BME280;32978;53.586;10.052;2023-04-07T13:09:42;101961.91;;;21.77;28.33
47240;BME280;32978;53.586;10.052;2023-04-07T13:14:39;101951.31;;;21.63;27.10
47240;BME280;32978;53.586;10.052;2023-04-07T13:19:52;101953.84;;;21.52;30.24
47240;BME280;32978;53.586;10.052;2023-04-07T13:24:49;101948.03;;;22.35;31.04
47240;BME280;32978;53.586;10.052;2023-04-07T13:29:46;101951.13;;;23.22;26.23
47240;BME280;32978;53.586;10.052;2023-04-07T13:34:42;101943.41;;;23.65;24.60
47240;BME280;32978;53.586;10.052;2023-04-07T13:39:39;101952.22;;;22.68;29.06
47240;BME280;32978;53.586;10.052;2023-04-07T13:44:36;101948.84;;;21.26;29.12
47240;BME280;32978;53.586;10.052;2023-04-07T13:49:34;101952.25;;;22.48;29.98
47240;BME280;32978;53.586;10.052;2023-04-07T13:54:31;101955.00;;;23.14;27.55
47240;BME280;32978;53.586;10.052;2023-04-07T13:59:28;101953.56;;;21.57;36.03
47240;BME280;32978;53.586;10.052;2023-04-07T14:04:24;101956.81;;;21.98;37.54
47240;BME280;32978;53.586;10.052;2023-04-07T14:09:21;101940.97;;;22.41;37.10
47240;BME280;32978;53.586;10.052;2023-04-07T14:14:17;101945.34;;;23.08;38.33
47240;BME280;32978;53.586;10.052;2023-04-07T14:19:13;101943.66;;;20.61;46.44
47240;BME280;32978;53.586;10.052;2023-04-07T14:24:10;101946.22;;;21.49;47.81
47240;BME280;32978;53.586;10.052;2023-04-07T14:29:07;101951.03;;;19.72;52.38
47240;BME280;32978;53.586;10.052;2023-04-07T14:34:03;101956.53;;;20.25;56.04
47240;BME280;32978;53.586;10.052;2023-04-07T14:39:00;101964.59;;;16.99;76.85
47240;BME280;32978;53.586;10.052;2023-04-07T14:43:57;101979.28;;;16.65;82.46
47240;BME280;32978;53.586;10.052;2023-04-07T14:48:53;101978.03;;;15.84;89.04
47240;BME280;32978;53.586;10.052;2023-04-07T14:53:51;101997.13;;;14.01;99.14
47240;BME280;32978;53.586;10.052;2023-04-07T14:58:51;101989.81;;;13.97;100.00
47240;BME280;32978;53.586;10.052;2023-04-07T15:03:47;101990.50;;;13.52;100.00
47240;BME280;32978;53.586;10.052;2023-04-07T15:08:44;101999.50;;;13.30;100.00
47240;BME280;32978;53.586;10.052;2023-04-07T15:13:41;102011.31;;;12.13;100.00
47240;BME280;32978;53.586;10.052;2023-04-07T15:18:40;102002.84;;;12.80;100.00
47240;BME280;32978;53.586;10.052;2023-04-07T15:23:37;102012.66;;;13.14;100.00
47240;BME280;32978;53.586;10.052;2023-04-07T15:28:34;102015.38;;;12.87;100.00
47240;BME280;32978;53.586;10.052;2023-04-07T15:33:31;102010.56;;;12.78;100.00
47240;BME280;32978;53.586;10.052;2023-04-07T15:38:28;102021.75;;;11.92;100.00
47240;BME280;32978;53.586;10.052;2023-04-07T15:43:24;102020.84;;;11.78;100.00
47240;BME280;32978;53.586;10.052;2023-04-07T15:48:21;102033.41;;;11.36;100.00
47240;BME280;32978;53.586;10.052;2023-04-07T15:53:17;102039.28;;;10.66;100.00
47240;BME280;32978;53.586;10.052;2023-04-07T15:58:14;102029.44;;;10.94;100.00
47240;BME280;32978;53.586;10.052;2023-04-07T16:03:10;102042.88;;;11.20;100.00
47240;BME280;32978;53.586;10.052;2023-04-07T16:08:07;102048.16;;;10.82;100.00
47240;BME280;32978;53.586;10.052;2023-04-07T16:13:03;102048.75;;;10.44;100.00
47240;BME280;32978;53.586;10.052;2023-04-07T16:18:03;102044.56;;;10.52;100.00
47240;BME280;32978;53.586;10.052;2023-04-07T16:22:59;102044.56;;;10.52;100.00
47240;BME280;32978;53.586;10.052;2023-04-07T16:27:56;102054.31;;;10.24;100.00
47240;BME280;32978;53.586;10.052;2023-04-07T16:32:52;102054.59;;;9.62;100.00
47240;BME280;32978;53.586;10.052;2023-04-07T16:37:49;102063.59;;;9.68;100.00
47240;BME280;32978;53.586;10.052;2023-04-07T16:42:46;102076.81;;;9.20;100.00
47240;BME280;32978;53.586;10.052;2023-04-07T16:47:42;102074.66;;;9.01;100.00
47240;BME280;32978;53.586;10.052;2023-04-07T16:52:39;102074.09;;;8.99;100.00
47240;BME280;32978;53.586;10.052;2023-04-07T16:57:36;102081.19;;;8.75;100.00
47240;BME280;32978;53.586;10.052;2023-04-07T17:02:32;102090.72;;;9.18;100.00
47240;BME280;32978;53.586;10.052;2023-04-07T17:07:30;102094.28;;;9.09;100.00
47240;BME280;32978;53.586;10.052;2023-04-07T17:12:26;102103.28;;;9.24;100.00
47240;BME280;32978;53.586;10.052;2023-04-07T17:17:23;102109.84;;;8.98;100.00
47240;BME280;32978;53.586;10.052;2023-04-07T17:22:19;102122.09;;;9.00;100.00
47240;BME280;32978;53.586;10.052;2023-04-07T17:27:16;102128.13;;;8.92;100.00
47240;BME280;32978;53.586;10.052;2023-04-07T17:32:13;102140.91;;;8.66;100.00
47240;BME280;32978;53.586;10.052;2023-04-07T17:37:09;102145.50;;;8.55;100.00
47240;BME280;32978;53.586;10.052;2023-04-07T17:42:06;102160.97;;;8.34;100.00
47240;BME280;32978;53.586;10.052;2023-04-07T17:47:02;102146.47;;;8.18;100.00
47240;BME280;32978;53.586;10.052;2023-04-07T17:51:59;102163.28;;;8.05;100.00
47240;BME280;32978;53.586;10.052;2023-04-07T17:56:55;102164.88;;;7.96;100.00
47240;BME280;32978;53.586;10.052;2023-04-07T18:01:53;102173.09;;;8.01;100.00
47240;BME280;32978;53.586;10.052;2023-04-07T18:06:49;102170.84;;;7.88;100.00
47240;BME280;32978;53.586;10.052;2023-04-07T18:11:46;102173.50;;;7.77;100.00
47240;BME280;32978;53.586;10.052;2023-04-07T18:16:42;102170.28;;;7.86;100.00
47240;BME280;32978;53.586;10.052;2023-04-07T18:21:39;102178.59;;;7.64;100.00
47240;BME280;32978;53.586;10.052;2023-04-07T18:26:35;102182.19;;;7.74;100.00
47240;BME280;32978;53.586;10.052;2023-04-07T18:31:32;102189.22;;;7.70;100.00
47240;BME280;32978;53.586;10.052;2023-04-07T18:36:29;102194.69;;;7.70;100.00
47240;BME280;32978;53.586;10.052;2023-04-07T18:41:25;102209.22;;;7.49;100.00
47240;BME280;32978;53.586;10.052;2023-04-07T18:46:22;102200.22;;;7.43;100.00
47240;BME280;32978;53.586;10.052;2023-04-07T18:51:18;102205.72;;;7.53;100.00
47240;BME280;32978;53.586;10.052;2023-04-07T18:56:15;102202.22;;;6.93;100.00
47240;BME280;32978;53.586;10.052;2023-04-07T19:01:11;102215.75;;;7.15;100.00
47240;BME280;32978;53.586;10.052;2023-04-07T19:06:12;102212.88;;;7.27;100.00
47240;BME280;32978;53.586;10.052;2023-04-07T19:11:10;102220.47;;;7.25;100.00
47240;BME280;32978;53.586;10.052;2023-04-07T19:16:07;102228.13;;;6.74;100.00
47240;BME280;32978;53.586;10.052;2023-04-07T19:21:04;102226.47;;;7.27;100.00
47240;BME280;32978;53.586;10.052;2023-04-07T19:26:01;102235.97;;;7.25;100.00
47240;BME280;32978;53.586;10.052;2023-04-07T19:30:58;102232.91;;;7.16;100.00
47240;BME280;32978;53.586;10.052;2023-04-07T19:35:55;102237.66;;;6.99;100.00
47240;BME280;32978;53.586;10.052;2023-04-07T19:40:51;102237.66;;;6.99;100.00
47240;BME280;32978;53.586;10.052;2023-04-07T19:45:48;102235.09;;;7.19;100.00
47240;BME280;32978;53.586;10.052;2023-04-07T19:50:46;102237.66;;;6.99;100.00
47240;BME280;32978;53.586;10.052;2023-04-07T19:55:46;102242.03;;;7.05;100.00
47240;BME280;32978;53.586;10.052;2023-04-07T20:00:44;102241.41;;;6.98;100.00
47240;BME280;32978;53.586;10.052;2023-04-07T20:05:43;102253.56;;;6.41;100.00
47240;BME280;32978;53.586;10.052;2023-04-07T20:10:40;102251.78;;;7.01;100.00
47240;BME280;32978;53.586;10.052;2023-04-07T20:15:36;102238.34;;;6.89;100.00
47240;BME280;32978;53.586;10.052;2023-04-07T20:20:33;102250.69;;;6.74;100.00
47240;BME280;32978;53.586;10.052;2023-04-07T20:25:29;102253.41;;;6.74;100.00
47240;BME280;32978;53.586;10.052;2023-04-07T20:30:26;102257.41;;;6.67;100.00
47240;BME280;32978;53.586;10.052;2023-04-07T20:35:22;102257.25;;;6.79;100.00
47240;BME280;32978;53.586;10.052;2023-04-07T20:40:19;102258.59;;;6.76;100.00
47240;BME280;32978;53.586;10.052;2023-04-07T20:45:15;102262.47;;;6.80;100.00
47240;BME280;32978;53.586;10.052;2023-04-07T20:50:12;102270.81;;;7.01;100.00
47240;BME280;32978;53.586;10.052;2023-04-07T20:55:08;102267.28;;;6.73;100.00
47240;BME280;32978;53.586;10.052;2023-04-07T21:00:06;102259.28;;;6.88;100.00
47240;BME280;32978;53.586;10.052;2023-04-07T21:05:03;102264.97;;;6.65;100.00
47240;BME280;32978;53.586;10.052;2023-04-07T21:10:00;102270.03;;;6.78;100.00
47240;BME280;32978;53.586;10.052;2023-04-07T21:14:56;102271.28;;;6.92;100.00
47240;BME280;32978;53.586;10.052;2023-04-07T21:19:52;102275.59;;;6.88;100.00
47240;BME280;32978;53.586;10.052;2023-04-07T21:24:51;102275.34;;;6.68;100.00
47240;BME280;32978;53.586;10.052;2023-04-07T21:29:48;102270.09;;;6.39;100.00
47240;BME280;32978;53.586;10.052;2023-04-07T21:34:44;102275.22;;;6.58;100.00
47240;BME280;32978;53.586;10.052;2023-04-07T21:39:41;102268.69;;;6.59;100.00
47240;BME280;32978;53.586;10.052;2023-04-07T21:44:37;102277.63;;;6.32;100.00
47240;BME280;32978;53.586;10.052;2023-04-07T21:49:34;102272.94;;;6.49;100.00
47240;BME280;32978;53.586;10.052;2023-04-07T21:54:33;102270.53;;;6.75;100.00
47240;BME280;32978;53.586;10.052;2023-04-07T21:59:30;102267.69;;;6.65;100.00
47240;BME280;32978;53.586;10.052;2023-04-07T22:04:27;102270.94;;;6.62;100.00
47240;BME280;32978;53.586;10.052;2023-04-07T22:09:25;102262.66;;;6.73;100.00
47240;BME280;32978;53.586;10.052;2023-04-07T22:14:22;102266.75;;;6.76;100.00
47240;BME280;32978;53.586;10.052;2023-04-07T22:19:20;102263.84;;;6.61;100.00
47240;BME280;32978;53.586;10.052;2023-04-07T22:24:16;102268.69;;;6.59;100.00
47240;BME280;32978;53.586;10.052;2023-04-07T22:29:13;102266.84;;;6.59;100.00
47240;BME280;32978;53.586;10.052;2023-04-07T22:34:09;102270.78;;;6.51;100.00
47240;BME280;32978;53.586;10.052;2023-04-07T22:39:06;102274.03;;;6.48;100.00
47240;BME280;32978;53.586;10.052;2023-04-07T22:44:04;102277.00;;;6.69;100.00
47240;BME280;32978;53.586;10.052;2023-04-07T22:49:00;102286.63;;;6.55;100.00
47240;BME280;32978;53.586;10.052;2023-04-07T22:53:57;102286.41;;;6.61;100.00
47240;BME280;32978;53.586;10.052;2023-04-07T22:58:53;102286.53;;;6.71;100.00
47240;BME280;32978;53.586;10.052;2023-04-07T23:03:49;102290.03;;;6.67;100.00
47240;BME280;32978;53.586;10.052;2023-04-07T23:08:46;102286.72;;;6.65;100.00
47240;BME280;32978;53.586;10.052;2023-04-07T23:13:43;102278.81;;;6.63;100.00
47240;BME280;32978;53.586;10.052;2023-04-07T23:18:40;102285.94;;;6.47;100.00
47240;BME280;32978;53.586;10.052;2023-04-07T23:23:37;102284.94;;;6.53;100.00
47240;BME280;32978;53.586;10.052;2023-04-07T23:28:34;102284.44;;;6.57;100.00
47240;BME280;32978;53.586;10.052;2023-04-07T23:33:30;102287.72;;;6.59;100.00
47240;BME280;32978;53.586;10.052;2023-04-07T23:38:27;102288.88;;;6.63;100.00
47240;BME280;32978;53.586;10.052;2023-04-07T23:43:23;102281.66;;;6.51;100.00
47240;BME280;32978;53.586;10.052;2023-04-07T23:48:20;102292.06;;;6.55;100.00
47240;BME280;32978;53.586;10.052;2023-04-07T23:53:16;102292.88;;;6.38;100.00
47240;BME280;32978;53.586;10.052;2023-04-07T23:58:13;102289.00;;;6.29;100.00
